Time;durP1;ratioP1;P1;durP2;ratioP2;P2;SDS_P1;SDS_P2;PMS_P1;PMS_P2;Temp;Humidity;BMP_temperature;BMP_pressure;BME280_temperature;BME280_humidity;BME280_pressure;Samples;Min_cycle;Max_cycle;Signal;HPM_P1;HPM_P2
2021/07/18 00:00:38;;;;;;;5.70;4.20;;;21.60;99.90;;;;;;6156305;23;20702;-46
2021/07/18 00:03:04;;;;;;;4.73;3.40;;;21.60;99.90;;;;;;6156626;23;20402;-46
2021/07/18 00:05:31;;;;;;;7.50;3.70;;;21.60;99.90;;;;;;6156940;23;20421;-42
2021/07/18 00:08:03;;;;;;;4.07;3.30;;;21.60;99.90;;;;;;6161937;23;20441;-41
2021/07/18 00:10:30;;;;;;;5.43;3.47;;;21.50;99.90;;;;;;6158016;23;20409;-41
2021/07/18 00:12:56;;;;;;;5.03;3.40;;;21.40;99.90;;;;;;6156618;23;20401;-44
2021/07/18 00:15:24;;;;;;;7.33;2.90;;;21.40;99.90;;;;;;6158565;23;20405;-44
2021/07/18 00:17:52;;;;;;;7.97;4.50;;;21.40;99.90;;;;;;6173298;23;20453;-42
2021/07/18 00:20:19;;;;;;;5.53;3.50;;;21.40;99.90;;;;;;6182870;23;20420;-44
2021/07/18 00:22:45;;;;;;;4.30;2.63;;;21.40;99.90;;;;;;6182774;23;20386;-42
2021/07/18 00:25:13;;;;;;;5.23;3.23;;;21.30;99.90;;;;;;6183580;23;20398;-41
2021/07/18 00:27:40;;;;;;;5.57;2.97;;;21.30;99.90;;;;;;6183668;23;20402;-44
2021/07/18 00:30:08;;;;;;;8.00;3.33;;;21.20;99.90;;;;;;6185111;23;20393;-44
2021/07/18 00:32:36;;;;;;;7.97;3.90;;;21.20;99.90;;;;;;6179639;23;20947;-41
2021/07/18 00:35:03;;;;;;;5.30;3.13;;;21.20;99.90;;;;;;6158111;23;20453;-44
2021/07/18 00:37:32;;;;;;;7.03;2.87;;;21.20;99.90;;;;;;6158197;23;20410;-45
2021/07/18 00:39:59;;;;;;;5.13;3.20;;;21.20;99.90;;;;;;6159788;23;20479;-41
2021/07/18 00:45:01;;;;;;;4.63;3.23;;;21.20;99.90;;;;;;6130236;23;20590;-41
2021/07/18 00:52:40;;;;;;;6.53;3.60;;;21.10;99.90;;;;;;6164587;23;20456;-43
2021/07/18 00:55:08;;;;;;;3.73;3.43;;;21.10;99.90;;;;;;6187562;23;20440;-47
2021/07/18 01:02:48;;;;;;;5.80;3.30;;;20.90;99.90;;;;;;6143599;23;20454;-43
2021/07/18 01:05:17;;;;;;;4.77;3.57;;;20.80;99.90;;;;;;6130082;23;20828;-45
2021/07/18 01:07:45;;;;;;;8.50;3.00;;;20.90;99.90;;;;;;6128825;23;20460;-48
2021/07/18 01:15:24;;;;;;;5.57;3.23;;;20.70;99.90;;;;;;6180212;23;20451;-43
2021/07/18 01:17:51;;;;;;;2.87;2.53;;;20.70;99.90;;;;;;6188451;23;20405;-42
2021/07/18 01:33:16;;;;;;;4.33;3.00;;;20.60;99.90;;;;;;6113292;23;20518;-48
2021/07/18 02:09:37;;;;;;;7.80;3.20;;;20.10;99.90;;;;;;6133986;23;20917;-44
2021/07/18 02:12:06;;;;;;;4.50;2.70;;;20.10;99.90;;;;;;6133050;23;20718;-46
2021/07/18 02:14:33;;;;;;;4.87;3.33;;;20.10;99.90;;;;;;6132314;23;20917;-42
2021/07/18 02:16:59;;;;;;;4.50;2.97;;;20.00;99.90;;;;;;6135574;23;20390;-46
2021/07/18 02:19:29;;;;;;;4.50;3.10;;;20.00;99.90;;;;;;6153223;23;20431;-48
2021/07/18 02:21:57;;;;;;;4.70;2.63;;;20.00;99.90;;;;;;6153462;23;20434;-47
2021/07/18 02:24:26;;;;;;;6.60;3.53;;;19.90;99.90;;;;;;6153128;23;20413;-50
2021/07/18 02:26:56;;;;;;;4.97;2.83;;;19.90;99.90;;;;;;6152595;23;20406;-47
2021/07/18 02:29:23;;;;;;;6.27;3.50;;;19.80;99.90;;;;;;6152533;23;20489;-50
2021/07/18 02:31:50;;;;;;;8.87;3.10;;;19.70;99.90;;;;;;6152948;23;20403;-44
2021/07/18 02:34:16;;;;;;;6.27;3.23;;;19.70;99.90;;;;;;6153298;23;20861;-50
2021/07/18 02:36:43;;;;;;;5.73;3.30;;;19.60;99.90;;;;;;6152777;23;20442;-46
2021/07/18 02:39:10;;;;;;;4.53;2.90;;;19.60;99.90;;;;;;6153430;23;20406;-51
2021/07/18 02:41:40;;;;;;;6.00;3.23;;;19.60;99.90;;;;;;6152863;23;20433;-45
2021/07/18 02:44:07;;;;;;;5.10;4.00;;;19.60;99.90;;;;;;6153225;23;20418;-47
2021/07/18 02:46:34;;;;;;;7.63;3.60;;;19.60;99.90;;;;;;6152938;23;20403;-49
2021/07/18 02:49:01;;;;;;;8.23;3.20;;;19.60;99.90;;;;;;6152743;23;20454;-44
2021/07/18 02:51:28;;;;;;;7.67;3.77;;;19.60;99.90;;;;;;6141305;23;20747;-44
2021/07/18 02:53:54;;;;;;;8.27;4.13;;;19.60;99.90;;;;;;6127492;23;20485;-46
2021/07/18 02:56:21;;;;;;;9.10;2.97;;;19.50;99.90;;;;;;6127510;23;20414;-46
2021/07/18 02:58:49;;;;;;;3.80;2.70;;;19.50;99.90;;;;;;6127105;23;20415;-45
2021/07/18 03:01:16;;;;;;;5.37;4.00;;;19.40;99.90;;;;;;6127364;23;20415;-45
2021/07/18 03:03:42;;;;;;;7.43;3.43;;;19.40;99.90;;;;;;6127331;23;20446;-44
2021/07/18 03:06:09;;;;;;;7.23;3.50;;;19.40;99.90;;;;;;6126963;23;20406;-47
2021/07/18 03:08:38;;;;;;;8.10;3.30;;;19.40;99.90;;;;;;6126592;23;20493;-43
2021/07/18 03:11:05;;;;;;;6.20;3.13;;;19.30;99.90;;;;;;6127422;23;20402;-43
2021/07/18 03:13:31;;;;;;;5.87;3.70;;;19.30;99.90;;;;;;6127115;23;20399;-44
2021/07/18 03:15:59;;;;;;;5.60;3.23;;;19.30;99.90;;;;;;6127010;23;20411;-43
2021/07/18 03:18:26;;;;;;;6.17;3.20;;;19.20;99.90;;;;;;6127293;23;20497;-46
2021/07/18 03:20:53;;;;;;;4.70;3.50;;;19.20;99.90;;;;;;6127385;23;20739;-44
2021/07/18 03:23:19;;;;;;;4.50;2.83;;;19.20;99.90;;;;;;6126632;23;20410;-45
2021/07/18 03:25:46;;;;;;;8.70;3.90;;;19.20;99.90;;;;;;6126825;23;20516;-45
2021/07/18 03:28:13;;;;;;;7.80;3.67;;;19.20;99.90;;;;;;6126653;23;20418;-46
2021/07/18 03:30:40;;;;;;;3.53;2.57;;;19.20;99.90;;;;;;6143943;23;20411;-46
2021/07/18 03:33:08;;;;;;;6.30;3.70;;;19.20;99.90;;;;;;6143402;23;20410;-48
2021/07/18 03:35:35;;;;;;;7.73;3.20;;;19.20;99.90;;;;;;6143407;23;20399;-44
2021/07/18 03:38:02;;;;;;;8.23;3.37;;;19.20;99.90;;;;;;6143784;23;20402;-47
2021/07/18 03:40:29;;;;;;;4.63;3.10;;;19.10;99.90;;;;;;6143446;23;20414;-41
2021/07/18 03:42:56;;;;;;;6.93;2.60;;;19.20;99.90;;;;;;6143485;23;20446;-46
2021/07/18 03:45:22;;;;;;;8.37;3.23;;;19.20;99.90;;;;;;6142690;23;20466;-42
2021/07/18 03:47:49;;;;;;;13.20;3.10;;;19.20;99.90;;;;;;6142658;23;20436;-42
2021/07/18 03:50:18;;;;;;;3.80;2.80;;;19.10;99.90;;;;;;6133730;23;20431;-50
2021/07/18 03:52:45;;;;;;;4.80;2.80;;;19.00;99.90;;;;;;6133155;23;20407;-44
2021/07/18 03:55:12;;;;;;;6.30;3.03;;;19.00;99.90;;;;;;6132779;23;20402;-44
2021/07/18 03:57:39;;;;;;;6.47;2.70;;;19.00;99.90;;;;;;6132458;23;20462;-44
2021/07/18 04:00:07;;;;;;;7.53;2.97;;;19.00;99.90;;;;;;6128689;23;20425;-42
2021/07/18 04:02:33;;;;;;;5.40;3.40;;;19.00;99.90;;;;;;6126934;23;20496;-41
2021/07/18 04:05:00;;;;;;;5.13;2.67;;;19.10;99.90;;;;;;6128331;23;20447;-41
2021/07/18 04:07:32;;;;;;;4.23;2.60;;;19.10;99.90;;;;;;6128765;23;20435;-43
2021/07/18 04:10:00;;;;;;;8.63;3.50;;;19.10;99.90;;;;;;6129064;23;20466;-44
2021/07/18 04:12:27;;;;;;;5.90;3.20;;;19.00;99.90;;;;;;6128844;23;20425;-42
2021/07/18 04:14:53;;;;;;;4.43;4.03;;;19.10;99.90;;;;;;6128672;23;20473;-46
2021/07/18 04:17:20;;;;;;;6.60;3.50;;;19.00;99.90;;;;;;6128665;23;20418;-42
2021/07/18 04:19:47;;;;;;;8.50;4.00;;;19.00;99.90;;;;;;6128564;23;20627;-42
2021/07/18 04:22:13;;;;;;;4.80;3.20;;;19.00;99.90;;;;;;6128585;23;20406;-42
2021/07/18 04:24:41;;;;;;;5.73;3.33;;;19.00;99.90;;;;;;6128888;23;20439;-44
2021/07/18 04:27:08;;;;;;;5.60;2.73;;;19.10;99.90;;;;;;6128857;23;20419;-48
2021/07/18 04:29:35;;;;;;;5.27;3.23;;;19.10;99.90;;;;;;6128867;23;20406;-44
2021/07/18 04:32:02;;;;;;;3.80;2.77;;;19.10;99.90;;;;;;6128800;23;20399;-49
2021/07/18 04:34:29;;;;;;;4.47;2.50;;;19.20;99.90;;;;;;6128369;23;20700;-48
2021/07/18 04:36:55;;;;;;;9.10;3.23;;;19.20;99.90;;;;;;6128749;23;20433;-49
2021/07/18 04:39:22;;;;;;;6.50;2.93;;;19.20;99.90;;;;;;6128275;23;20410;-48
2021/07/18 04:41:50;;;;;;;5.20;2.47;;;19.20;99.90;;;;;;6128613;23;20418;-43
2021/07/18 04:44:17;;;;;;;3.80;3.27;;;19.30;99.90;;;;;;6128512;23;20447;-43
2021/07/18 04:46:43;;;;;;;4.77;2.47;;;19.30;99.90;;;;;;6128595;23;20414;-42
2021/07/18 04:49:10;;;;;;;12.53;3.23;;;19.30;99.90;;;;;;6128509;23;20485;-43
2021/07/18 04:51:37;;;;;;;4.23;2.50;;;19.20;99.90;;;;;;6128307;23;20422;-45
2021/07/18 04:54:04;;;;;;;6.60;2.93;;;19.30;99.90;;;;;;6127107;23;20407;-47
2021/07/18 04:56:30;;;;;;;4.63;3.00;;;19.30;99.90;;;;;;6127443;23;20596;-47
2021/07/18 04:58:58;;;;;;;5.47;3.13;;;19.30;99.90;;;;;;6128163;23;20470;-46
2021/07/18 05:01:25;;;;;;;3.80;2.60;;;19.40;99.90;;;;;;6128375;23;20406;-47
2021/07/18 05:03:52;;;;;;;5.53;3.00;;;19.40;99.90;;;;;;6128472;23;20902;-48
2021/07/18 05:06:18;;;;;;;7.67;3.20;;;19.40;99.90;;;;;;6128222;23;20732;-42
2021/07/18 05:08:45;;;;;;;3.93;3.03;;;19.40;99.90;;;;;;6127531;23;20442;-51
2021/07/18 05:11:12;;;;;;;7.57;3.30;;;19.40;99.90;;;;;;6128083;23;20448;-43
2021/07/18 05:13:39;;;;;;;5.30;3.53;;;19.40;99.90;;;;;;6128001;23;20414;-42
2021/07/18 05:16:07;;;;;;;6.13;3.00;;;19.50;99.90;;;;;;6128316;23;20434;-45
2021/07/18 05:18:33;;;;;;;3.93;2.67;;;19.50;99.90;;;;;;6128744;23;20414;-44
2021/07/18 05:21:00;;;;;;;2.90;2.50;;;19.50;99.90;;;;;;6128965;23;20418;-42
2021/07/18 05:23:27;;;;;;;4.97;3.03;;;19.60;99.90;;;;;;6129442;23;20423;-44
2021/07/18 05:25:53;;;;;;;4.70;2.43;;;19.70;99.90;;;;;;6129386;23;20450;-48
2021/07/18 05:28:20;;;;;;;3.73;3.07;;;19.70;99.90;;;;;;6129085;23;20473;-44
2021/07/18 05:30:47;;;;;;;3.70;3.20;;;19.80;99.90;;;;;;6129173;23;20478;-46
2021/07/18 05:33:15;;;;;;;6.47;3.00;;;19.80;99.90;;;;;;6128786;23;20426;-45
2021/07/18 05:35:41;;;;;;;3.90;2.70;;;19.80;99.90;;;;;;6128909;23;20885;-44
2021/07/18 05:38:08;;;;;;;4.47;2.80;;;19.80;99.90;;;;;;6128393;23;20868;-44
2021/07/18 05:40:35;;;;;;;6.13;2.83;;;19.80;99.90;;;;;;6128668;23;20493;-42
2021/07/18 05:43:03;;;;;;;6.93;2.80;;;19.90;99.90;;;;;;6129561;23;20418;-41
2021/07/18 05:45:29;;;;;;;4.77;2.40;;;19.90;99.90;;;;;;6129081;23;20917;-42
2021/07/18 05:47:56;;;;;;;4.53;3.07;;;20.00;99.90;;;;;;6130050;23;20466;-45
2021/07/18 05:50:24;;;;;;;4.20;2.93;;;20.00;99.90;;;;;;6129637;23;20406;-42
2021/07/18 05:52:51;;;;;;;15.00;4.40;;;20.00;99.90;;;;;;6129766;23;20407;-41
2021/07/18 05:55:18;;;;;;;5.53;2.63;;;20.10;99.90;;;;;;6128878;23;20402;-41
2021/07/18 05:57:45;;;;;;;11.37;3.40;;;20.10;99.90;;;;;;6127630;23;20411;-46
2021/07/18 06:00:13;;;;;;;5.77;2.13;;;20.10;99.90;;;;;;6127931;23;20478;-49
2021/07/18 06:02:41;;;;;;;5.33;3.10;;;20.20;99.90;;;;;;6128621;23;20489;-45
2021/07/18 06:05:09;;;;;;;6.63;3.00;;;20.20;99.90;;;;;;6128829;23;20868;-50
2021/07/18 06:07:37;;;;;;;5.80;2.90;;;20.30;99.90;;;;;;6128918;23;20794;-43
2021/07/18 06:10:05;;;;;;;3.90;2.70;;;20.30;99.90;;;;;;6130980;23;20411;-44
2021/07/18 06:12:32;;;;;;;7.13;2.87;;;20.30;99.90;;;;;;6154317;23;20410;-43
2021/07/18 06:14:59;;;;;;;3.50;3.20;;;20.30;99.90;;;;;;6154816;23;20397;-42
2021/07/18 06:17:26;;;;;;;10.83;3.27;;;20.30;99.90;;;;;;6154694;23;20382;-44
2021/07/18 06:19:53;;;;;;;5.67;2.73;;;20.40;99.90;;;;;;6154464;23;20426;-43
2021/07/18 06:22:20;;;;;;;5.00;2.43;;;20.40;99.90;;;;;;6153899;23;20438;-42
2021/07/18 06:24:49;;;;;;;5.60;3.27;;;20.50;99.90;;;;;;6154351;23;20450;-44
2021/07/18 06:27:15;;;;;;;4.17;2.73;;;20.50;99.90;;;;;;6153138;23;20418;-48
2021/07/18 06:29:42;;;;;;;10.17;3.10;;;20.60;99.90;;;;;;6153542;23;20417;-41
2021/07/18 06:32:09;;;;;;;3.53;3.10;;;20.70;99.90;;;;;;6153784;23;20438;-43
2021/07/18 06:34:36;;;;;;;5.83;2.77;;;20.80;99.90;;;;;;6152491;23;20417;-43
2021/07/18 07:11:16;;;;;;;3.50;2.60;;;21.80;99.90;;;;;;6170950;23;20460;-45
2021/07/18 07:34:27;;;;;;;3.20;2.30;;;27.00;99.90;;;;;;6165684;23;20524;-49
2021/07/18 08:36:48;;;;;;;3.17;2.33;;;35.50;56.20;;;;;;6156912;23;20448;-45
2021/07/18 08:39:16;;;;;;;8.50;2.10;;;35.90;56.40;;;;;;6158957;23;20472;-45
2021/07/18 08:41:44;;;;;;;5.10;2.77;;;35.90;55.60;;;;;;6159036;23;20467;-49
2021/07/18 08:44:12;;;;;;;8.33;2.83;;;35.90;55.60;;;;;;6158715;23;20426;-44
2021/07/18 08:46:39;;;;;;;4.13;2.23;;;35.70;55.30;;;;;;6158143;23;20479;-51
2021/07/18 08:49:08;;;;;;;4.10;2.20;;;35.80;54.70;;;;;;6157429;23;20425;-46
2021/07/18 08:51:35;;;;;;;3.23;2.43;;;35.90;55.50;;;;;;6158516;23;20417;-48
2021/07/18 08:54:04;;;;;;;5.63;2.60;;;36.10;55.30;;;;;;6158515;23;20406;-48
2021/07/18 08:56:32;;;;;;;4.77;2.30;;;36.10;54.40;;;;;;6158776;23;20412;-46
2021/07/18 08:58:59;;;;;;;3.60;2.10;;;36.00;54.30;;;;;;6158405;23;20484;-42
2021/07/18 09:01:26;;;;;;;4.20;3.17;;;35.50;54.40;;;;;;6158352;23;20417;-48
2021/07/18 09:03:53;;;;;;;4.50;2.53;;;35.30;55.90;;;;;;6158445;23;20504;-48
2021/07/18 09:06:20;;;;;;;6.13;2.43;;;35.20;55.30;;;;;;6158068;23;20431;-49
2021/07/18 09:08:48;;;;;;;5.60;2.67;;;35.10;55.60;;;;;;6159311;23;20421;-43
2021/07/18 09:11:24;;;;;;;2.90;2.30;;;35.50;56.50;;;;;;6158793;23;20405;-45
2021/07/18 09:13:58;;;;;;;4.37;2.20;;;35.80;55.40;;;;;;6158507;23;20389;-45
2021/07/18 09:16:30;;;;;;;2.93;2.60;;;35.80;54.10;;;;;;6158837;23;20416;-48
2021/07/18 09:19:26;;;;;;;3.87;2.80;;;35.90;54.40;;;;;;6158490;23;20433;-42
2021/07/18 09:22:11;;;;;;;2.77;2.20;;;35.90;54.00;;;;;;6157942;23;20413;-43
2021/07/18 09:24:40;;;;;;;3.50;2.50;;;35.90;53.80;;;;;;6158057;23;20473;-42
2021/07/18 09:27:11;;;;;;;2.73;2.37;;;36.10;53.60;;;;;;6157901;23;20457;-49
2021/07/18 09:29:40;;;;;;;3.93;2.50;;;35.90;53.40;;;;;;6158405;23;20386;-48
2021/07/18 09:32:09;;;;;;;3.13;2.53;;;35.80;53.90;;;;;;6158350;23;20413;-46
2021/07/18 09:34:37;;;;;;;3.87;2.07;;;35.40;53.90;;;;;;6157798;23;20928;-44
2021/07/18 09:37:11;;;;;;;6.13;2.60;;;35.50;54.10;;;;;;6158775;23;20397;-46
2021/07/18 09:39:38;;;;;;;4.30;2.30;;;35.70;54.30;;;;;;6158307;23;20402;-45
2021/07/18 09:42:05;;;;;;;3.07;2.80;;;35.90;53.60;;;;;;6158174;23;20417;-48
2021/07/18 09:49:49;;;;;;;4.67;2.37;;;36.00;53.80;;;;;;6095017;23;20443;-49
2021/07/18 09:52:21;;;;;;;3.40;2.60;;;36.00;54.20;;;;;;6221009;23;20491;-44
2021/07/18 10:05:27;;;;;;;3.70;2.50;;;36.10;53.10;;;;;;6167627;23;20456;-45
2021/07/18 10:08:04;;;;;;;5.67;2.37;;;36.10;53.40;;;;;;6166245;23;20389;-50
2021/07/18 10:10:31;;;;;;;4.40;2.80;;;36.20;54.20;;;;;;6161230;23;20398;-46
2021/07/18 10:12:58;;;;;;;3.53;2.80;;;36.10;53.70;;;;;;6157164;23;20412;-46
2021/07/18 10:15:25;;;;;;;3.07;2.50;;;35.90;54.70;;;;;;6156875;23;20915;-51
2021/07/18 10:17:53;;;;;;;4.70;2.53;;;35.80;53.90;;;;;;6156788;23;20472;-43
2021/07/18 10:20:21;;;;;;;2.20;1.87;;;35.40;54.50;;;;;;6156376;23;20402;-43
2021/07/18 10:22:49;;;;;;;3.40;2.93;;;35.00;55.50;;;;;;6156907;23;20864;-44
2021/07/18 10:25:16;;;;;;;3.57;2.40;;;34.30;56.40;;;;;;6155945;23;20442;-50
2021/07/18 10:27:43;;;;;;;3.40;2.77;;;34.10;58.20;;;;;;6157079;23;20417;-48
2021/07/18 10:30:13;;;;;;;2.90;2.30;;;34.10;57.50;;;;;;6156804;23;20448;-44
2021/07/18 10:32:40;;;;;;;2.90;2.10;;;34.20;57.10;;;;;;6156617;23;20488;-48
2021/07/18 10:35:09;;;;;;;3.00;2.30;;;34.30;57.70;;;;;;6156954;23;20436;-46
2021/07/18 10:37:42;;;;;;;4.20;2.37;;;34.40;56.50;;;;;;6156658;23;20493;-48
2021/07/18 10:40:13;;;;;;;4.60;2.57;;;34.10;57.60;;;;;;6156988;23;20410;-45
2021/07/18 10:42:40;;;;;;;4.17;2.30;;;34.10;58.40;;;;;;6157055;23;20406;-46
2021/07/18 10:45:28;;;;;;;7.10;2.37;;;34.10;58.90;;;;;;6156287;23;20409;-44
2021/07/18 10:47:57;;;;;;;3.10;2.80;;;34.00;58.60;;;;;;6151364;23;20414;-43
2021/07/18 10:50:51;;;;;;;10.63;2.90;;;33.40;58.50;;;;;;6156667;23;20421;-49
2021/07/18 10:53:21;;;;;;;3.47;2.27;;;33.00;58.90;;;;;;6156456;23;20473;-43
2021/07/18 10:55:49;;;;;;;4.70;2.40;;;32.60;60.00;;;;;;6156585;23;20457;-47
2021/07/18 10:58:45;;;;;;;2.53;2.00;;;32.50;61.60;;;;;;6156393;23;20413;-43
2021/07/18 11:01:40;;;;;;;2.80;2.00;;;32.00;61.50;;;;;;6157005;23;20410;-44
2021/07/18 11:04:28;;;;;;;2.93;2.63;;;31.70;64.00;;;;;;6156567;23;20433;-47
2021/07/18 11:07:25;;;;;;;3.70;3.20;;;31.40;64.40;;;;;;6156124;23;20549;-46
2021/07/18 11:09:56;;;;;;;4.17;2.30;;;31.20;64.60;;;;;;6156440;23;20405;-45
2021/07/18 11:12:24;;;;;;;3.90;2.40;;;31.10;66.30;;;;;;6156171;23;20487;-49
2021/07/18 11:14:51;;;;;;;3.57;2.20;;;31.00;67.10;;;;;;6156148;23;20426;-49
2021/07/18 11:17:27;;;;;;;3.10;2.00;;;30.90;67.00;;;;;;6156779;23;20409;-44
2021/07/18 11:19:58;;;;;;;2.60;2.40;;;30.90;66.10;;;;;;6156661;23;20390;-44
2021/07/18 11:22:58;;;;;;;3.97;2.40;;;30.70;66.60;;;;;;6156209;23;20416;-43
2021/07/18 11:25:47;;;;;;;4.20;2.53;;;30.60;67.90;;;;;;6156041;23;20410;-43
2021/07/18 11:28:51;;;;;;;2.00;1.80;;;30.50;68.40;;;;;;6156269;23;20425;-44
2021/07/18 11:31:21;;;;;;;4.50;2.17;;;30.50;67.40;;;;;;6124451;23;20417;-45
2021/07/18 11:34:06;;;;;;;6.40;2.60;;;30.50;67.90;;;;;;6156423;23;20947;-49
2021/07/18 11:37:03;;;;;;;2.37;2.13;;;30.30;68.50;;;;;;6156206;23;20378;-43
2021/07/18 11:39:30;;;;;;;2.20;2.00;;;30.30;69.40;;;;;;6156691;23;20390;-49
2021/07/18 11:42:02;;;;;;;2.57;2.00;;;30.10;67.80;;;;;;6156349;23;20413;-44
2021/07/18 11:44:31;;;;;;;5.27;2.93;;;30.00;68.20;;;;;;6156219;23;20394;-47
2021/07/18 11:47:06;;;;;;;3.07;2.00;;;29.80;68.70;;;;;;6156504;23;20456;-46
2021/07/18 11:49:38;;;;;;;9.33;2.37;;;29.80;68.60;;;;;;6156697;23;20417;-49
2021/07/18 11:52:07;;;;;;;3.03;2.20;;;29.70;69.70;;;;;;6156568;23;20390;-49
2021/07/18 11:54:35;;;;;;;4.37;2.20;;;29.60;70.70;;;;;;6156060;23;20472;-44
2021/07/18 11:57:06;;;;;;;3.00;1.97;;;29.70;70.80;;;;;;6156186;23;20444;-45
2021/07/18 11:59:34;;;;;;;2.30;1.77;;;29.50;71.20;;;;;;6156233;23;20429;-44
2021/07/18 12:02:01;;;;;;;3.10;1.90;;;29.40;71.00;;;;;;6156600;23;20497;-49
2021/07/18 12:04:28;;;;;;;4.03;1.83;;;29.50;72.00;;;;;;6156141;23;20457;-46
2021/07/18 14:17:13;;;;;;;3.77;2.40;;;29.30;70.80;;;;;;6151296;23;20504;-50
2021/07/18 14:19:40;;;;;;;5.00;2.00;;;29.20;70.90;;;;;;6187170;23;20413;-45
2021/07/18 14:22:07;;;;;;;3.97;2.20;;;29.00;70.80;;;;;;6186656;23;20467;-41
2021/07/18 14:24:36;;;;;;;4.67;1.60;;;28.80;71.00;;;;;;6186967;23;20401;-47
2021/07/18 14:27:04;;;;;;;2.97;2.37;;;28.70;71.30;;;;;;6186796;23;20444;-42
2021/07/18 14:29:30;;;;;;;3.20;2.17;;;28.60;72.30;;;;;;6187047;23;20461;-41
2021/07/18 14:31:57;;;;;;;3.40;2.63;;;28.60;71.90;;;;;;6186823;23;20499;-48
2021/07/18 14:34:25;;;;;;;3.37;2.43;;;28.60;72.50;;;;;;6186858;23;20471;-44
2021/07/18 14:36:52;;;;;;;4.80;2.27;;;28.70;71.60;;;;;;6186942;23;20475;-44
2021/07/18 14:39:19;;;;;;;3.73;1.90;;;28.70;70.80;;;;;;6186374;23;20405;-45
2021/07/18 14:41:46;;;;;;;2.20;2.00;;;28.70;70.40;;;;;;6187732;23;20440;-49
2021/07/18 14:44:12;;;;;;;7.13;2.50;;;28.80;71.10;;;;;;6187280;23;20424;-45
2021/07/18 15:35:21;;;;;;;6.63;2.70;;;28.70;67.90;;;;;;6180399;23;20452;-47
2021/07/18 15:37:48;;;;;;;8.30;2.90;;;28.70;69.20;;;;;;6186009;23;20404;-42
2021/07/18 16:11:21;;;;;;;10.07;2.93;;;29.10;67.30;;;;;;6132288;23;20453;-50
2021/07/18 16:13:49;;;;;;;3.93;2.23;;;28.90;66.90;;;;;;6154040;23;20395;-50
2021/07/18 16:16:16;;;;;;;4.57;2.43;;;28.80;68.10;;;;;;6153941;23;20461;-50
2021/07/18 16:18:44;;;;;;;7.27;2.40;;;28.70;67.90;;;;;;6154400;23;20383;-47
2021/07/18 16:21:11;;;;;;;3.80;2.10;;;28.50;68.10;;;;;;6151504;23;20449;-44
2021/07/18 16:23:38;;;;;;;4.30;2.07;;;28.30;68.90;;;;;;6128462;23;20421;-43
2021/07/18 16:26:06;;;;;;;5.00;3.40;;;28.00;69.70;;;;;;6127845;23;20489;-43
2021/07/18 16:28:34;;;;;;;7.40;2.60;;;27.90;70.50;;;;;;6128538;23;20403;-45
2021/07/18 16:31:01;;;;;;;3.20;2.50;;;27.80;71.20;;;;;;6128492;23;20413;-48
2021/07/18 16:33:28;;;;;;;6.43;2.83;;;27.80;71.60;;;;;;6128089;23;20899;-45
2021/07/18 16:35:55;;;;;;;2.73;2.20;;;27.80;71.40;;;;;;6128467;23;20472;-43
2021/07/18 16:46:19;;;;;;;2.70;2.10;;;27.80;72.60;;;;;;6087083;23;20761;-48
2021/07/18 16:48:45;;;;;;;3.60;3.03;;;27.70;73.30;;;;;;6243295;23;20399;-47
2021/07/18 16:51:12;;;;;;;3.60;2.30;;;27.60;74.90;;;;;;6242636;23;20404;-45
2021/07/18 16:53:39;;;;;;;2.97;2.30;;;27.50;74.70;;;;;;6219644;23;20758;-48
2021/07/18 16:56:06;;;;;;;2.77;1.90;;;27.40;74.80;;;;;;6217622;23;20404;-45
2021/07/18 16:58:33;;;;;;;4.40;3.03;;;27.30;74.60;;;;;;6217523;23;20917;-47
2021/07/18 17:01:00;;;;;;;4.13;2.50;;;27.30;74.70;;;;;;6217768;23;20416;-42
2021/07/18 17:03:28;;;;;;;4.53;2.40;;;27.30;75.30;;;;;;6217817;23;20491;-45
2021/07/18 17:05:55;;;;;;;6.77;2.43;;;27.30;74.90;;;;;;6217924;23;20404;-47
2021/07/18 17:08:22;;;;;;;2.40;2.20;;;27.30;75.70;;;;;;6217768;23;20505;-49
2021/07/18 17:10:48;;;;;;;10.60;2.20;;;27.40;74.60;;;;;;6217331;23;20702;-42
2021/07/18 17:13:15;;;;;;;5.00;1.97;;;27.40;74.70;;;;;;6217673;23;20412;-43
2021/07/18 17:15:42;;;;;;;5.40;2.00;;;27.30;74.10;;;;;;6217683;23;20408;-43
2021/07/18 17:33:50;;;;;;;5.30;2.10;;;26.80;77.60;;;;;;6140251;23;20468;-45
2021/07/18 17:36:16;;;;;;;6.67;2.67;;;26.70;77.20;;;;;;6163180;23;20389;-47
2021/07/18 17:38:43;;;;;;;5.83;2.40;;;26.70;77.30;;;;;;6162713;23;20401;-45
2021/07/18 17:41:11;;;;;;;3.47;2.73;;;26.70;77.70;;;;;;6162191;23;20410;-46
2021/07/18 17:43:38;;;;;;;2.87;2.30;;;26.70;77.80;;;;;;6163102;23;20497;-47
2021/07/18 17:46:05;;;;;;;7.70;2.97;;;26.70;77.70;;;;;;6163493;23;20398;-47
2021/07/18 17:48:32;;;;;;;8.70;3.37;;;26.60;77.80;;;;;;6164047;23;20504;-48
2021/07/18 17:51:00;;;;;;;6.27;2.17;;;26.60;77.80;;;;;;6163559;23;20406;-47
2021/07/18 17:53:27;;;;;;;6.43;2.23;;;26.50;78.40;;;;;;6163772;23;20406;-44
2021/07/18 17:55:54;;;;;;;5.77;2.53;;;26.50;78.70;;;;;;6163987;23;20412;-46
2021/07/18 17:58:21;;;;;;;9.60;3.70;;;26.50;79.10;;;;;;6164097;23;20428;-45
2021/07/18 18:00:48;;;;;;;2.40;2.20;;;26.40;79.10;;;;;;6164227;23;20413;-46
2021/07/18 18:03:14;;;;;;;4.33;2.80;;;26.40;79.40;;;;;;6163969;23;20409;-43
2021/07/18 18:05:44;;;;;;;12.47;8.60;;;26.40;79.70;;;;;;6163303;23;20472;-45
2021/07/18 18:08:13;;;;;;;4.17;2.87;;;26.40;79.80;;;;;;6163093;23;20496;-45
2021/07/18 18:10:39;;;;;;;5.37;3.23;;;26.40;79.70;;;;;;6163846;23;20406;-49
2021/07/18 18:13:06;;;;;;;4.60;2.47;;;26.30;79.70;;;;;;6164526;23;20915;-45
2021/07/18 18:15:33;;;;;;;9.60;3.00;;;26.20;80.20;;;;;;6163953;23;20432;-45
2021/07/18 18:18:00;;;;;;;6.77;2.73;;;26.20;80.20;;;;;;6163757;23;20401;-46
2021/07/18 18:20:27;;;;;;;5.20;2.23;;;26.20;80.70;;;;;;6164063;23;20406;-48
2021/07/18 18:22:54;;;;;;;3.90;2.30;;;26.20;80.20;;;;;;6164223;23;20692;-42
2021/07/18 18:25:22;;;;;;;3.00;2.30;;;26.10;80.80;;;;;;6163491;23;20694;-46
2021/07/18 18:27:49;;;;;;;8.60;3.40;;;26.00;81.20;;;;;;6164047;23;20448;-44
2021/07/18 18:30:16;;;;;;;3.93;2.60;;;26.00;81.60;;;;;;6163554;23;20385;-46
2021/07/18 18:32:46;;;;;;;2.77;2.37;;;26.00;81.30;;;;;;6163264;23;20406;-45
2021/07/18 18:35:13;;;;;;;9.03;3.23;;;26.00;81.70;;;;;;6163437;23;20386;-50
2021/07/18 18:37:40;;;;;;;3.70;2.33;;;26.00;82.60;;;;;;6163922;23;20416;-46
2021/07/18 18:40:10;;;;;;;6.53;2.40;;;25.90;83.10;;;;;;6163164;23;20410;-44
2021/07/18 18:42:38;;;;;;;4.90;3.10;;;25.80;82.60;;;;;;6162600;23;20422;-43
2021/07/18 18:45:06;;;;;;;4.40;2.80;;;25.80;83.10;;;;;;6162917;23;20401;-48
2021/07/18 18:47:34;;;;;;;3.40;2.63;;;25.80;83.10;;;;;;6162042;23;20441;-47
2021/07/18 18:50:01;;;;;;;4.67;2.67;;;25.80;83.40;;;;;;6163802;23;20472;-49
2021/07/18 18:52:28;;;;;;;3.90;2.60;;;25.70;83.80;;;;;;6163252;23;20844;-46
2021/07/18 18:54:55;;;;;;;5.57;3.50;;;25.70;84.20;;;;;;6163423;23;20406;-48
2021/07/18 18:57:22;;;;;;;5.20;2.60;;;25.60;84.60;;;;;;6163124;23;20417;-46
2021/07/18 18:59:50;;;;;;;4.70;2.90;;;25.60;85.10;;;;;;6162758;23;20468;-45
2021/07/18 19:02:17;;;;;;;4.20;2.70;;;25.60;85.00;;;;;;6163209;23;20410;-45
2021/07/18 19:04:43;;;;;;;23.83;15.60;;;25.50;85.00;;;;;;6162688;23;20406;-44
2021/07/18 19:07:10;;;;;;;8.60;3.87;;;25.50;85.80;;;;;;6163156;23;20441;-44
2021/07/18 19:09:37;;;;;;;4.30;2.80;;;25.50;85.60;;;;;;6163506;23;20406;-42
2021/07/18 19:12:05;;;;;;;9.93;2.53;;;25.40;85.80;;;;;;6162854;23;20429;-48
2021/07/18 19:14:32;;;;;;;4.80;2.33;;;25.40;85.80;;;;;;6163313;23;20425;-46
2021/07/18 19:17:00;;;;;;;7.83;2.83;;;25.40;86.30;;;;;;6162864;23;20492;-46
2021/07/18 19:19:27;;;;;;;3.73;2.77;;;25.50;86.80;;;;;;6162599;23;20476;-43
2021/07/18 19:21:56;;;;;;;5.77;2.80;;;25.40;86.90;;;;;;6163494;23;20409;-43
2021/07/18 19:24:22;;;;;;;8.47;2.10;;;25.50;87.20;;;;;;6163210;23;20473;-46
2021/07/18 19:26:49;;;;;;;4.83;2.60;;;25.50;87.70;;;;;;6162812;23;20405;-41
2021/07/18 19:29:17;;;;;;;5.73;2.63;;;25.50;87.90;;;;;;6162593;23;20420;-45
2021/07/18 19:31:46;;;;;;;7.20;3.57;;;25.50;87.90;;;;;;6163145;23;20450;-43
2021/07/18 19:34:14;;;;;;;4.33;2.60;;;25.50;88.60;;;;;;6164992;23;20437;-43
2021/07/18 19:36:41;;;;;;;6.30;2.70;;;25.50;89.20;;;;;;6167154;23;20406;-43
2021/07/18 19:39:11;;;;;;;4.70;2.53;;;25.40;89.60;;;;;;6165968;23;20411;-42
2021/07/18 19:41:38;;;;;;;4.00;2.70;;;25.50;90.10;;;;;;6166354;23;20495;-45
2021/07/18 19:44:06;;;;;;;4.33;2.40;;;25.40;90.00;;;;;;6166933;23;20436;-40
2021/07/18 19:46:34;;;;;;;8.13;3.10;;;25.40;90.30;;;;;;6166029;23;20872;-43
2021/07/18 19:49:01;;;;;;;5.00;3.23;;;25.40;90.30;;;;;;6166981;23;20448;-47
2021/07/18 19:51:31;;;;;;;7.40;2.50;;;25.30;90.70;;;;;;6166671;23;20435;-47
2021/07/18 19:53:57;;;;;;;8.83;2.60;;;25.30;90.60;;;;;;6165977;23;20802;-43
2021/07/18 19:56:24;;;;;;;2.83;2.43;;;25.30;91.10;;;;;;6166604;23;20872;-45
2021/07/18 19:58:51;;;;;;;3.57;2.53;;;25.30;91.30;;;;;;6166097;23;20398;-43
2021/07/18 20:01:18;;;;;;;4.60;2.50;;;25.20;91.70;;;;;;6165928;23;20772;-48